sensor_id;sensor_type;location;lat;lon;timestamp;temperature;humidity
25953;DHT22;13750;50.804;8.764;2024-03-23T01:17:44;10.10;72.30
25953;DHT22;13750;50.804;8.764;2024-03-23T01:20:14;10.10;72.50
25953;DHT22;13750;50.804;8.764;2024-03-23T01:51:33;10.20;72.90
25953;DHT22;13750;50.804;8.764;2024-03-23T01:57:40;10.20;72.90
25953;DHT22;13750;50.804;8.764;2024-03-23T02:03:45;10.20;72.60
25953;DHT22;13750;50.804;8.764;2024-03-23T02:06:10;10.10;72.70
25953;DHT22;13750;50.804;8.764;2024-03-23T02:08:56;10.10;72.70
25953;DHT22;13750;50.804;8.764;2024-03-23T02:11:22;10.10;72.60
25953;DHT22;13750;50.804;8.764;2024-03-23T02:13:50;10.10;72.70
25953;DHT22;13750;50.804;8.764;2024-03-23T02:16:18;10.10;72.90
25953;DHT22;13750;50.804;8.764;2024-03-23T02:22:08;10.10;73.10
25953;DHT22;13750;50.804;8.764;2024-03-23T02:24:43;10.10;73.20
25953;DHT22;13750;50.804;8.764;2024-03-23T02:27:28;10.10;72.90
25953;DHT22;13750;50.804;8.764;2024-03-23T02:30:20;10.10;73.20
25953;DHT22;13750;50.804;8.764;2024-03-23T02:32:57;10.10;73.30
25953;DHT22;13750;50.804;8.764;2024-03-23T02:35:22;10.10;73.30
25953;DHT22;13750;50.804;8.764;2024-03-23T02:37:50;10.10;73.00
25953;DHT22;13750;50.804;8.764;2024-03-23T02:40:17;10.10;73.20
25953;DHT22;13750;50.804;8.764;2024-03-23T02:42:45;10.10;73.10
25953;DHT22;13750;50.804;8.764;2024-03-23T02:45:19;10.10;73.30
25953;DHT22;13750;50.804;8.764;2024-03-23T02:47:46;10.10;73.40
25953;DHT22;13750;50.804;8.764;2024-03-23T02:50:12;10.10;73.40
25953;DHT22;13750;50.804;8.764;2024-03-23T02:52:40;10.10;73.40
25953;DHT22;13750;50.804;8.764;2024-03-23T02:55:16;10.10;73.70
25953;DHT22;13750;50.804;8.764;2024-03-23T02:58:01;10.10;73.90
25953;DHT22;13750;50.804;8.764;2024-03-23T03:00:32;10.10;74.30
25953;DHT22;13750;50.804;8.764;2024-03-23T03:02:58;10.10;74.50
25953;DHT22;13750;50.804;8.764;2024-03-23T03:05:23;10.10;74.40
25953;DHT22;13750;50.804;8.764;2024-03-23T03:07:59;10.10;74.30
25953;DHT22;13750;50.804;8.764;2024-03-23T03:39:41;10.10;74.90
25953;DHT22;13750;50.804;8.764;2024-03-23T03:42:11;10.00;74.30
25953;DHT22;13750;50.804;8.764;2024-03-23T03:44:46;10.00;74.10
25953;DHT22;13750;50.804;8.764;2024-03-23T03:47:13;9.90;74.10
25953;DHT22;13750;50.804;8.764;2024-03-23T03:49:41;9.90;74.30
25953;DHT22;13750;50.804;8.764;2024-03-23T03:52:12;9.80;73.60
25953;DHT22;13750;50.804;8.764;2024-03-23T03:54:42;9.70;73.90
25953;DHT22;13750;50.804;8.764;2024-03-23T03:57:15;9.70;73.90
25953;DHT22;13750;50.804;8.764;2024-03-23T03:59:48;9.60;73.90
25953;DHT22;13750;50.804;8.764;2024-03-23T04:02:13;9.60;74.00
25953;DHT22;13750;50.804;8.764;2024-03-23T04:04:59;9.50;73.70
25953;DHT22;13750;50.804;8.764;2024-03-23T04:14:14;9.40;74.30
25953;DHT22;13750;50.804;8.764;2024-03-23T04:16:42;9.40;74.20
25953;DHT22;13750;50.804;8.764;2024-03-23T04:19:15;9.30;74.30
25953;DHT22;13750;50.804;8.764;2024-03-23T04:21:41;9.30;74.30
25953;DHT22;13750;50.804;8.764;2024-03-23T04:24:36;9.30;74.40
25953;DHT22;13750;50.804;8.764;2024-03-23T04:27:23;9.30;74.30
25953;DHT22;13750;50.804;8.764;2024-03-23T04:29:56;9.30;74.50
25953;DHT22;13750;50.804;8.764;2024-03-23T04:36:18;9.20;74.00
25953;DHT22;13750;50.804;8.764;2024-03-23T04:39:09;9.20;74.30
25953;DHT22;13750;50.804;8.764;2024-03-23T04:49:03;9.20;73.60
25953;DHT22;13750;50.804;8.764;2024-03-23T04:51:42;9.10;74.00
25953;DHT22;13750;50.804;8.764;2024-03-23T04:54:19;9.10;73.70
25953;DHT22;13750;50.804;8.764;2024-03-23T04:56:45;9.10;73.60
25953;DHT22;13750;50.804;8.764;2024-03-23T04:59:24;9.10;73.30
25953;DHT22;13750;50.804;8.764;2024-03-23T05:01:49;9.10;73.30
25953;DHT22;13750;50.804;8.764;2024-03-23T05:04:17;9.10;73.00
25953;DHT22;13750;50.804;8.764;2024-03-23T05:06:43;9.10;73.10
25953;DHT22;13750;50.804;8.764;2024-03-23T05:15:52;9.10;73.10
25953;DHT22;13750;50.804;8.764;2024-03-23T05:22:09;9.10;73.40
25953;DHT22;13750;50.804;8.764;2024-03-23T05:34:53;9.10;73.20
25953;DHT22;13750;50.804;8.764;2024-03-23T05:37:41;9.00;71.70
25953;DHT22;13750;50.804;8.764;2024-03-23T05:40:29;8.90;71.70
25953;DHT22;13750;50.804;8.764;2024-03-23T05:43:08;8.80;72.20
25953;DHT22;13750;50.804;8.764;2024-03-23T05:49:50;8.70;72.10
25953;DHT22;13750;50.804;8.764;2024-03-23T06:10:27;8.60;72.30
25953;DHT22;13750;50.804;8.764;2024-03-23T06:19:38;8.60;72.50
25953;DHT22;13750;50.804;8.764;2024-03-23T06:28:48;8.60;71.70
25953;DHT22;13750;50.804;8.764;2024-03-23T06:34:55;8.60;72.30
25953;DHT22;13750;50.804;8.764;2024-03-23T06:38:04;8.60;71.90
25953;DHT22;13750;50.804;8.764;2024-03-23T06:40:40;8.60;71.60
25953;DHT22;13750;50.804;8.764;2024-03-23T06:43:07;8.50;71.80
25953;DHT22;13750;50.804;8.764;2024-03-23T06:56:11;8.50;70.90
25953;DHT22;13750;50.804;8.764;2024-03-23T07:05:20;8.50;71.90
25953;DHT22;13750;50.804;8.764;2024-03-23T07:07:52;8.60;72.10
25953;DHT22;13750;50.804;8.764;2024-03-23T07:10:27;8.60;72.30
25953;DHT22;13750;50.804;8.764;2024-03-23T07:13:06;8.60;72.20
25953;DHT22;13750;50.804;8.764;2024-03-23T07:15:58;8.60;72.50
25953;DHT22;13750;50.804;8.764;2024-03-23T07:18:36;8.60;72.70
25953;DHT22;13750;50.804;8.764;2024-03-23T07:21:27;8.60;72.50
25953;DHT22;13750;50.804;8.764;2024-03-23T07:24:01;8.60;72.70
25953;DHT22;13750;50.804;8.764;2024-03-23T07:26:45;8.60;72.50
25953;DHT22;13750;50.804;8.764;2024-03-23T07:32:44;8.60;71.50
25953;DHT22;13750;50.804;8.764;2024-03-23T07:38:54;8.60;70.00
25953;DHT22;13750;50.804;8.764;2024-03-23T07:45:06;8.50;70.50
25953;DHT22;13750;50.804;8.764;2024-03-23T07:47:39;8.50;70.40
25953;DHT22;13750;50.804;8.764;2024-03-23T07:50:10;8.40;70.20
25953;DHT22;13750;50.804;8.764;2024-03-23T07:52:36;8.40;69.70
25953;DHT22;13750;50.804;8.764;2024-03-23T07:55:04;8.40;69.70
25953;DHT22;13750;50.804;8.764;2024-03-23T07:57:32;8.50;70.10
25953;DHT22;13750;50.804;8.764;2024-03-23T07:59:59;8.40;69.60
25953;DHT22;13750;50.804;8.764;2024-03-23T08:02:34;8.40;69.90
25953;DHT22;13750;50.804;8.764;2024-03-23T08:05:02;8.40;69.80
25953;DHT22;13750;50.804;8.764;2024-03-23T08:07:28;8.40;69.80
25953;DHT22;13750;50.804;8.764;2024-03-23T08:09:54;8.40;70.00
25953;DHT22;13750;50.804;8.764;2024-03-23T08:12:19;8.40;69.80
25953;DHT22;13750;50.804;8.764;2024-03-23T08:14:45;8.50;70.30
25953;DHT22;13750;50.804;8.764;2024-03-23T08:17:11;8.50;70.60
25953;DHT22;13750;50.804;8.764;2024-03-23T08:19:38;8.50;70.60
25953;DHT22;13750;50.804;8.764;2024-03-23T08:25:59;8.60;71.10
25953;DHT22;13750;50.804;8.764;2024-03-23T08:28:42;8.60;71.10
25953;DHT22;13750;50.804;8.764;2024-03-23T08:31:48;8.60;71.00
25953;DHT22;13750;50.804;8.764;2024-03-23T08:34:38;8.60;70.90
25953;DHT22;13750;50.804;8.764;2024-03-23T08:37:07;8.60;70.90
25953;DHT22;13750;50.804;8.764;2024-03-23T08:39:52;8.60;70.40
25953;DHT22;13750;50.804;8.764;2024-03-23T09:18:54;8.60;71.60
25953;DHT22;13750;50.804;8.764;2024-03-23T09:21:33;8.60;71.40
25953;DHT22;13750;50.804;8.764;2024-03-23T09:24:12;8.70;71.10
25953;DHT22;13750;50.804;8.764;2024-03-23T09:26:47;8.70;70.60
25953;DHT22;13750;50.804;8.764;2024-03-23T09:39:18;8.90;70.30
25953;DHT22;13750;50.804;8.764;2024-03-23T09:41:46;8.90;70.40
25953;DHT22;13750;50.804;8.764;2024-03-23T09:44:16;9.00;70.40
25953;DHT22;13750;50.804;8.764;2024-03-23T09:47:00;9.00;70.10
25953;DHT22;13750;50.804;8.764;2024-03-23T09:49:29;9.10;70.30
25953;DHT22;13750;50.804;8.764;2024-03-23T09:52:02;9.10;69.70
25953;DHT22;13750;50.804;8.764;2024-03-23T09:54:31;9.10;68.90
25953;DHT22;13750;50.804;8.764;2024-03-23T09:56:58;9.10;67.80
25953;DHT22;13750;50.804;8.764;2024-03-23T09:59:28;9.10;67.10
25953;DHT22;13750;50.804;8.764;2024-03-23T10:02:10;9.10;66.90
25953;DHT22;13750;50.804;8.764;2024-03-23T10:04:38;9.10;65.90
25953;DHT22;13750;50.804;8.764;2024-03-23T10:07:18;9.10;65.60
25953;DHT22;13750;50.804;8.764;2024-03-23T10:13:57;9.10;64.70
25953;DHT22;13750;50.804;8.764;2024-03-23T11:09:53;9.30;61.00
25953;DHT22;13750;50.804;8.764;2024-03-23T11:15:11;9.30;61.60
25953;DHT22;13750;50.804;8.764;2024-03-23T11:17:39;9.30;62.40
25953;DHT22;13750;50.804;8.764;2024-03-23T11:20:32;9.30;62.30
25953;DHT22;13750;50.804;8.764;2024-03-23T11:23:00;9.40;61.90
25953;DHT22;13750;50.804;8.764;2024-03-23T11:25:41;9.30;61.20
25953;DHT22;13750;50.804;8.764;2024-03-23T11:55:08;9.00;65.00
25953;DHT22;13750;50.804;8.764;2024-03-23T11:58:35;8.90;64.60
25953;DHT22;13750;50.804;8.764;2024-03-23T12:01:16;9.00;64.90
25953;DHT22;13750;50.804;8.764;2024-03-23T12:17:51;8.90;64.30
25953;DHT22;13750;50.804;8.764;2024-03-23T12:20:46;8.90;64.60
25953;DHT22;13750;50.804;8.764;2024-03-23T12:29:37;8.90;65.20
25953;DHT22;13750;50.804;8.764;2024-03-23T12:39:33;9.10;64.30
25953;DHT22;13750;50.804;8.764;2024-03-23T12:43:00;9.00;64.80
25953;DHT22;13750;50.804;8.764;2024-03-23T14:05:45;8.20;63.70
25953;DHT22;13750;50.804;8.764;2024-03-23T14:08:58;8.20;63.90
25953;DHT22;13750;50.804;8.764;2024-03-23T14:11:23;8.30;63.80
25953;DHT22;13750;50.804;8.764;2024-03-23T14:13:54;8.30;63.30
25953;DHT22;13750;50.804;8.764;2024-03-23T14:16:26;8.40;62.70
25953;DHT22;13750;50.804;8.764;2024-03-23T14:18:57;8.40;61.30
25953;DHT22;13750;50.804;8.764;2024-03-23T14:21:27;8.30;61.60
25953;DHT22;13750;50.804;8.764;2024-03-23T14:23:56;8.30;61.70
25953;DHT22;13750;50.804;8.764;2024-03-23T14:26:21;8.20;61.50
25953;DHT22;13750;50.804;8.764;2024-03-23T14:28:49;8.20;61.60
25953;DHT22;13750;50.804;8.764;2024-03-23T14:31:15;8.10;61.80
25953;DHT22;13750;50.804;8.764;2024-03-23T14:33:51;8.20;61.70
25953;DHT22;13750;50.804;8.764;2024-03-23T14:36:19;8.20;62.00
25953;DHT22;13750;50.804;8.764;2024-03-23T14:39:07;8.20;61.50
25953;DHT22;13750;50.804;8.764;2024-03-23T14:41:57;8.20;61.60
25953;DHT22;13750;50.804;8.764;2024-03-23T14:44:26;8.30;62.10
25953;DHT22;13750;50.804;8.764;2024-03-23T14:47:14;8.20;62.50
25953;DHT22;13750;50.804;8.764;2024-03-23T14:49:40;8.30;63.00
25953;DHT22;13750;50.804;8.764;2024-03-23T14:53:02;8.30;63.30
25953;DHT22;13750;50.804;8.764;2024-03-23T14:55:34;8.30;63.90
25953;DHT22;13750;50.804;8.764;2024-03-23T14:58:16;8.30;63.70
25953;DHT22;13750;50.804;8.764;2024-03-23T15:01:02;8.40;63.70
25953;DHT22;13750;50.804;8.764;2024-03-23T15:10:13;8.60;64.10
25953;DHT22;13750;50.804;8.764;2024-03-23T15:12:52;8.60;64.20
25953;DHT22;13750;50.804;8.764;2024-03-23T15:18:44;8.70;63.90
25953;DHT22;13750;50.804;8.764;2024-03-23T15:21:20;8.70;63.50
25953;DHT22;13750;50.804;8.764;2024-03-23T15:23:47;8.80;64.00
25953;DHT22;13750;50.804;8.764;2024-03-23T15:26:17;8.90;63.90
25953;DHT22;13750;50.804;8.764;2024-03-23T15:28:48;8.90;63.90
25953;DHT22;13750;50.804;8.764;2024-03-23T15:31:26;9.00;63.30
25953;DHT22;13750;50.804;8.764;2024-03-23T15:33:52;9.00;62.50
25953;DHT22;13750;50.804;8.764;2024-03-23T15:36:18;9.10;62.50
25953;DHT22;13750;50.804;8.764;2024-03-23T15:38:44;9.00;62.10
25953;DHT22;13750;50.804;8.764;2024-03-23T15:41:10;9.10;62.10
25953;DHT22;13750;50.804;8.764;2024-03-23T15:43:36;9.10;62.10
25953;DHT22;13750;50.804;8.764;2024-03-23T15:46:05;9.10;61.20
25953;DHT22;13750;50.804;8.764;2024-03-23T15:48:31;9.10;61.20
25953;DHT22;13750;50.804;8.764;2024-03-23T15:51:04;9.20;61.10
25953;DHT22;13750;50.804;8.764;2024-03-23T15:53:30;9.20;61.40
25953;DHT22;13750;50.804;8.764;2024-03-23T15:56:00;9.30;61.60
25953;DHT22;13750;50.804;8.764;2024-03-23T15:58:27;9.30;61.70
25953;DHT22;13750;50.804;8.764;2024-03-23T16:01:00;9.40;61.70
25953;DHT22;13750;50.804;8.764;2024-03-23T16:03:27;9.50;61.70
25953;DHT22;13750;50.804;8.764;2024-03-23T16:06:06;9.50;61.70
25953;DHT22;13750;50.804;8.764;2024-03-23T16:08:35;9.40;61.70
25953;DHT22;13750;50.804;8.764;2024-03-23T16:11:05;9.40;61.60
25953;DHT22;13750;50.804;8.764;2024-03-23T16:13:32;9.40;61.50
25953;DHT22;13750;50.804;8.764;2024-03-23T16:15:58;9.30;61.50
25953;DHT22;13750;50.804;8.764;2024-03-23T16:18:27;9.30;61.60
25953;DHT22;13750;50.804;8.764;2024-03-23T16:23:21;9.20;61.70
25953;DHT22;13750;50.804;8.764;2024-03-23T16:25:48;9.20;61.60
25953;DHT22;13750;50.804;8.764;2024-03-23T16:28:30;9.20;61.90
25953;DHT22;13750;50.804;8.764;2024-03-23T16:30:57;9.20;61.90
25953;DHT22;13750;50.804;8.764;2024-03-23T16:33:24;9.10;62.30
25953;DHT22;13750;50.804;8.764;2024-03-23T16:36:00;8.90;62.00
25953;DHT22;13750;50.804;8.764;2024-03-23T16:38:29;8.60;62.50
25953;DHT22;13750;50.804;8.764;2024-03-23T16:40:59;8.50;63.50
25953;DHT22;13750;50.804;8.764;2024-03-23T16:43:26;8.30;64.30
25953;DHT22;13750;50.804;8.764;2024-03-23T16:45:56;8.20;65.00
25953;DHT22;13750;50.804;8.764;2024-03-23T16:48:23;8.00;65.40
25953;DHT22;13750;50.804;8.764;2024-03-23T16:50:49;8.00;66.00
25953;DHT22;13750;50.804;8.764;2024-03-23T16:53:14;7.90;65.70
25953;DHT22;13750;50.804;8.764;2024-03-23T16:55:40;7.70;65.80
25953;DHT22;13750;50.804;8.764;2024-03-23T16:58:06;7.60;66.00
25953;DHT22;13750;50.804;8.764;2024-03-23T17:00:31;7.50;66.70
25953;DHT22;13750;50.804;8.764;2024-03-23T17:02:58;7.40;66.70
25953;DHT22;13750;50.804;8.764;2024-03-23T17:05:24;7.40;67.30
25953;DHT22;13750;50.804;8.764;2024-03-23T17:07:49;7.40;67.70
25953;DHT22;13750;50.804;8.764;2024-03-23T17:10:15;7.40;67.90
25953;DHT22;13750;50.804;8.764;2024-03-23T17:12:41;7.40;68.50
25953;DHT22;13750;50.804;8.764;2024-03-23T17:15:07;7.50;68.60
25953;DHT22;13750;50.804;8.764;2024-03-23T17:17:32;7.50;68.60
25953;DHT22;13750;50.804;8.764;2024-03-23T17:20:02;7.50;68.60
25953;DHT22;13750;50.804;8.764;2024-03-23T17:22:28;7.50;68.50
25953;DHT22;13750;50.804;8.764;2024-03-23T17:24:54;7.50;68.70
25953;DHT22;13750;50.804;8.764;2024-03-23T17:27:19;7.50;69.10
25953;DHT22;13750;50.804;8.764;2024-03-23T17:29:45;7.50;69.30
25953;DHT22;13750;50.804;8.764;2024-03-23T17:32:14;7.50;69.20
25953;DHT22;13750;50.804;8.764;2024-03-23T17:34:40;7.50;69.50
25953;DHT22;13750;50.804;8.764;2024-03-23T17:37:05;7.50;69.50
25953;DHT22;13750;50.804;8.764;2024-03-23T17:39:31;7.50;69.50
25953;DHT22;13750;50.804;8.764;2024-03-23T17:41:57;7.50;69.50
25953;DHT22;13750;50.804;8.764;2024-03-23T17:44:23;7.50;69.50
25953;DHT22;13750;50.804;8.764;2024-03-23T17:46:48;7.50;69.60
25953;DHT22;13750;50.804;8.764;2024-03-23T17:49:14;7.50;69.90
25953;DHT22;13750;50.804;8.764;2024-03-23T17:51:41;7.40;70.10
25953;DHT22;13750;50.804;8.764;2024-03-23T17:54:07;7.50;70.20
25953;DHT22;13750;50.804;8.764;2024-03-23T17:56:32;7.50;70.30
25953;DHT22;13750;50.804;8.764;2024-03-23T17:58:58;7.50;70.10
25953;DHT22;13750;50.804;8.764;2024-03-23T18:01:23;7.40;70.20
25953;DHT22;13750;50.804;8.764;2024-03-23T18:03:52;7.40;70.20
25953;DHT22;13750;50.804;8.764;2024-03-23T18:06:19;7.40;69.90
25953;DHT22;13750;50.804;8.764;2024-03-23T18:08:44;7.30;70.10
25953;DHT22;13750;50.804;8.764;2024-03-23T18:11:10;7.30;69.90
25953;DHT22;13750;50.804;8.764;2024-03-23T18:13:36;7.30;69.80
25953;DHT22;13750;50.804;8.764;2024-03-23T18:16:02;7.20;69.80
25953;DHT22;13750;50.804;8.764;2024-03-23T18:18:28;7.20;70.00
25953;DHT22;13750;50.804;8.764;2024-03-23T18:20:54;7.20;70.30
25953;DHT22;13750;50.804;8.764;2024-03-23T18:23:20;7.10;70.00
25953;DHT22;13750;50.804;8.764;2024-03-23T18:25:55;7.10;70.30
25953;DHT22;13750;50.804;8.764;2024-03-23T18:28:24;7.10;70.30
25953;DHT22;13750;50.804;8.764;2024-03-23T18:30:57;7.10;70.30
25953;DHT22;13750;50.804;8.764;2024-03-23T18:33:23;7.10;70.30
25953;DHT22;13750;50.804;8.764;2024-03-23T18:35:52;7.00;70.30
25953;DHT22;13750;50.804;8.764;2024-03-23T18:38:19;7.00;70.20
25953;DHT22;13750;50.804;8.764;2024-03-23T18:40:47;7.00;70.40
25953;DHT22;13750;50.804;8.764;2024-03-23T18:43:14;6.90;70.50
25953;DHT22;13750;50.804;8.764;2024-03-23T18:45:49;6.90;70.60
25953;DHT22;13750;50.804;8.764;2024-03-23T18:48:15;6.90;70.70
25953;DHT22;13750;50.804;8.764;2024-03-23T18:50:41;6.90;70.70
25953;DHT22;13750;50.804;8.764;2024-03-23T18:53:10;6.90;70.60
25953;DHT22;13750;50.804;8.764;2024-03-23T18:55:40;6.90;70.60
25953;DHT22;13750;50.804;8.764;2024-03-23T18:58:06;6.80;70.60
25953;DHT22;13750;50.804;8.764;2024-03-23T19:00:33;6.80;70.80
25953;DHT22;13750;50.804;8.764;2024-03-23T19:02:59;6.80;70.80
25953;DHT22;13750;50.804;8.764;2024-03-23T19:05:24;6.80;70.80
25953;DHT22;13750;50.804;8.764;2024-03-23T19:07:51;6.70;71.00
25953;DHT22;13750;50.804;8.764;2024-03-23T19:10:17;6.80;71.10
25953;DHT22;13750;50.804;8.764;2024-03-23T19:12:49;6.70;71.20
25953;DHT22;13750;50.804;8.764;2024-03-23T19:15:15;6.70;71.10
25953;DHT22;13750;50.804;8.764;2024-03-23T19:17:40;6.70;71.10
25953;DHT22;13750;50.804;8.764;2024-03-23T19:20:06;6.70;71.20
25953;DHT22;13750;50.804;8.764;2024-03-23T19:22:32;6.70;71.30
25953;DHT22;13750;50.804;8.764;2024-03-23T19:24:57;6.70;71.30
25953;DHT22;13750;50.804;8.764;2024-03-23T19:27:25;6.70;71.30
25953;DHT22;13750;50.804;8.764;2024-03-23T19:29:51;6.70;71.50
25953;DHT22;13750;50.804;8.764;2024-03-23T19:32:16;6.70;71.60
25953;DHT22;13750;50.804;8.764;2024-03-23T19:34:42;6.70;71.50
25953;DHT22;13750;50.804;8.764;2024-03-23T19:37:08;6.70;71.50
25953;DHT22;13750;50.804;8.764;2024-03-23T19:39:34;6.60;71.40
25953;DHT22;13750;50.804;8.764;2024-03-23T19:41:59;6.60;71.40
25953;DHT22;13750;50.804;8.764;2024-03-23T19:44:25;6.60;71.40
25953;DHT22;13750;50.804;8.764;2024-03-23T19:46:50;6.60;71.30
25953;DHT22;13750;50.804;8.764;2024-03-23T19:49:18;6.60;71.60
25953;DHT22;13750;50.804;8.764;2024-03-23T19:51:44;6.50;71.60
25953;DHT22;13750;50.804;8.764;2024-03-23T19:54:10;6.50;71.80
25953;DHT22;13750;50.804;8.764;2024-03-23T19:56:36;6.50;72.00
25953;DHT22;13750;50.804;8.764;2024-03-23T19:59:03;6.50;72.00
25953;DHT22;13750;50.804;8.764;2024-03-23T20:01:28;6.50;71.80
25953;DHT22;13750;50.804;8.764;2024-03-23T20:03:54;6.50;71.90
25953;DHT22;13750;50.804;8.764;2024-03-23T20:06:20;6.40;71.90
25953;DHT22;13750;50.804;8.764;2024-03-23T20:08:46;6.50;72.00
25953;DHT22;13750;50.804;8.764;2024-03-23T20:11:12;6.40;72.00
25953;DHT22;13750;50.804;8.764;2024-03-23T20:13:38;6.40;72.10
25953;DHT22;13750;50.804;8.764;2024-03-23T20:16:04;6.30;72.20
25953;DHT22;13750;50.804;8.764;2024-03-23T20:18:30;6.30;72.10
25953;DHT22;13750;50.804;8.764;2024-03-23T20:20:56;6.30;71.80
25953;DHT22;13750;50.804;8.764;2024-03-23T20:23:25;6.30;71.90
25953;DHT22;13750;50.804;8.764;2024-03-23T20:25:54;6.30;72.10
25953;DHT22;13750;50.804;8.764;2024-03-23T20:28:20;6.30;72.00
25953;DHT22;13750;50.804;8.764;2024-03-23T20:30:47;6.20;72.10
25953;DHT22;13750;50.804;8.764;2024-03-23T20:33:12;6.20;72.20
25953;DHT22;13750;50.804;8.764;2024-03-23T20:35:49;6.20;72.10
25953;DHT22;13750;50.804;8.764;2024-03-23T20:38:18;6.20;72.30
25953;DHT22;13750;50.804;8.764;2024-03-23T20:40:45;6.20;72.40
25953;DHT22;13750;50.804;8.764;2024-03-23T20:43:11;6.10;72.60
25953;DHT22;13750;50.804;8.764;2024-03-23T20:45:40;6.10;72.60
25953;DHT22;13750;50.804;8.764;2024-03-23T20:48:06;6.10;72.60
25953;DHT22;13750;50.804;8.764;2024-03-23T20:50:32;6.10;72.50
25953;DHT22;13750;50.804;8.764;2024-03-23T20:52:58;6.10;72.60
25953;DHT22;13750;50.804;8.764;2024-03-23T20:55:24;6.10;72.90
25953;DHT22;13750;50.804;8.764;2024-03-23T20:57:50;6.00;73.00
25953;DHT22;13750;50.804;8.764;2024-03-23T21:00:18;6.00;73.10
25953;DHT22;13750;50.804;8.764;2024-03-23T21:02:44;6.00;73.20
25953;DHT22;13750;50.804;8.764;2024-03-23T21:05:09;6.10;73.50
25953;DHT22;13750;50.804;8.764;2024-03-23T21:07:35;6.00;73.50
25953;DHT22;13750;50.804;8.764;2024-03-23T21:10:00;6.10;73.30
25953;DHT22;13750;50.804;8.764;2024-03-23T21:12:26;6.00;73.20
25953;DHT22;13750;50.804;8.764;2024-03-23T21:14:52;6.00;73.60
25953;DHT22;13750;50.804;8.764;2024-03-23T21:17:18;6.00;74.00
25953;DHT22;13750;50.804;8.764;2024-03-23T21:19:48;6.10;73.90
25953;DHT22;13750;50.804;8.764;2024-03-23T21:22:14;6.10;74.00
25953;DHT22;13750;50.804;8.764;2024-03-23T21:24:40;6.10;74.00
25953;DHT22;13750;50.804;8.764;2024-03-23T21:27:05;6.10;74.00
25953;DHT22;13750;50.804;8.764;2024-03-23T21:29:32;6.10;73.70
25953;DHT22;13750;50.804;8.764;2024-03-23T21:31:58;6.10;73.70
25953;DHT22;13750;50.804;8.764;2024-03-23T21:34:23;6.10;73.70
25953;DHT22;13750;50.804;8.764;2024-03-23T21:36:49;6.10;73.60
25953;DHT22;13750;50.804;8.764;2024-03-23T21:39:15;6.10;73.60
25953;DHT22;13750;50.804;8.764;2024-03-23T21:41:46;6.10;73.70
25953;DHT22;13750;50.804;8.764;2024-03-23T21:44:13;6.10;73.90
25953;DHT22;13750;50.804;8.764;2024-03-23T21:46:38;6.10;73.90
25953;DHT22;13750;50.804;8.764;2024-03-23T21:49:04;6.10;73.40
25953;DHT22;13750;50.804;8.764;2024-03-23T21:51:30;6.10;73.40
25953;DHT22;13750;50.804;8.764;2024-03-23T21:53:57;6.10;73.60
25953;DHT22;13750;50.804;8.764;2024-03-23T21:56:23;6.10;73.50
25953;DHT22;13750;50.804;8.764;2024-03-23T21:58:49;6.10;73.60
25953;DHT22;13750;50.804;8.764;2024-03-23T22:01:15;6.10;73.30
25953;DHT22;13750;50.804;8.764;2024-03-23T22:03:45;6.10;73.20
25953;DHT22;13750;50.804;8.764;2024-03-23T22:06:11;6.00;73.30
25953;DHT22;13750;50.804;8.764;2024-03-23T22:08:36;6.10;73.60
25953;DHT22;13750;50.804;8.764;2024-03-23T22:11:02;6.10;73.40
25953;DHT22;13750;50.804;8.764;2024-03-23T22:13:27;6.00;73.50
25953;DHT22;13750;50.804;8.764;2024-03-23T22:16:00;6.10;73.60
25953;DHT22;13750;50.804;8.764;2024-03-23T22:18:26;6.10;73.60
25953;DHT22;13750;50.804;8.764;2024-03-23T22:20:56;6.00;73.40
25953;DHT22;13750;50.804;8.764;2024-03-23T22:23:22;6.00;73.70
25953;DHT22;13750;50.804;8.764;2024-03-23T22:25:48;6.00;73.70
25953;DHT22;13750;50.804;8.764;2024-03-23T22:28:14;6.00;73.60
25953;DHT22;13750;50.804;8.764;2024-03-23T22:30:40;6.00;73.30
25953;DHT22;13750;50.804;8.764;2024-03-23T22:33:05;5.90;73.70
25953;DHT22;13750;50.804;8.764;2024-03-23T22:35:31;5.90;73.70
25953;DHT22;13750;50.804;8.764;2024-03-23T22:37:59;5.90;73.90
25953;DHT22;13750;50.804;8.764;2024-03-23T22:40:25;5.90;74.00
25953;DHT22;13750;50.804;8.764;2024-03-23T22:42:53;5.80;74.10
25953;DHT22;13750;50.804;8.764;2024-03-23T22:45:20;5.80;73.90
25953;DHT22;13750;50.804;8.764;2024-03-23T22:47:45;5.90;74.10
25953;DHT22;13750;50.804;8.764;2024-03-23T22:50:11;5.90;74.10
25953;DHT22;13750;50.804;8.764;2024-03-23T22:52:39;5.90;74.10
25953;DHT22;13750;50.804;8.764;2024-03-23T22:55:05;5.80;74.30
25953;DHT22;13750;50.804;8.764;2024-03-23T22:57:30;5.90;74.30
25953;DHT22;13750;50.804;8.764;2024-03-23T22:59:56;5.80;74.20
25953;DHT22;13750;50.804;8.764;2024-03-23T23:02:21;5.80;74.20
25953;DHT22;13750;50.804;8.764;2024-03-23T23:04:49;5.80;74.50
25953;DHT22;13750;50.804;8.764;2024-03-23T23:07:15;5.80;74.50
25953;DHT22;13750;50.804;8.764;2024-03-23T23:09:40;5.90;74.40
25953;DHT22;13750;50.804;8.764;2024-03-23T23:12:06;5.90;74.30
25953;DHT22;13750;50.804;8.764;2024-03-23T23:14:32;5.90;74.50
25953;DHT22;13750;50.804;8.764;2024-03-23T23:16:58;5.90;74.50
25953;DHT22;13750;50.804;8.764;2024-03-23T23:19:23;5.90;74.70
25953;DHT22;13750;50.804;8.764;2024-03-23T23:21:49;5.90;74.70
25953;DHT22;13750;50.804;8.764;2024-03-23T23:24:14;5.80;74.60
25953;DHT22;13750;50.804;8.764;2024-03-23T23:26:40;5.90;74.90
25953;DHT22;13750;50.804;8.764;2024-03-23T23:29:05;5.90;74.80
25953;DHT22;13750;50.804;8.764;2024-03-23T23:31:31;5.90;75.10
25953;DHT22;13750;50.804;8.764;2024-03-23T23:33:58;5.90;75.10
25953;DHT22;13750;50.804;8.764;2024-03-23T23:36:23;5.90;75.10
25953;DHT22;13750;50.804;8.764;2024-03-23T23:38:49;5.90;75.10
25953;DHT22;13750;50.804;8.764;2024-03-23T23:41:15;5.90;75.10
25953;DHT22;13750;50.804;8.764;2024-03-23T23:43:41;6.00;75.10
25953;DHT22;13750;50.804;8.764;2024-03-23T23:46:07;6.00;75.20
25953;DHT22;13750;50.804;8.764;2024-03-23T23:48:33;6.00;75.00
25953;DHT22;13750;50.804;8.764;2024-03-23T23:50:58;6.00;75.10
25953;DHT22;13750;50.804;8.764;2024-03-23T23:53:24;6.00;75.20
25953;DHT22;13750;50.804;8.764;2024-03-23T23:55:51;6.00;75.00
25953;DHT22;13750;50.804;8.764;2024-03-23T23:58:17;6.00;75.30
